Aérodrome :
LOGIN :

S'inscrire | Disclaimer

   EN    FR    IT 

 










Légende :    VFR   VFR Marginal   IFR   IFR Intensif   IFR Très Intensif
Visi : 
Plafond : 
>= 8 km
>= 3000ft
5 à 8 km
1000 à 3000 ft
1500m à 5 km
500 à 1000 ft
800 à 1500m
200 à 500 ft
< 800m
< 200 ft
Symboles :   Orages  Brouillard  Fortes neiges  Fortes précipitations  Vent > 20 kt
SIGMETs :   Divers  Orages  Givrage  Turbulence  Onde Orograph.  Cendres Volcan.






- Altitude de l'aérodrome : 82 ft
- Code IATA : QIE


LFMI - Istres

DERNIER METAR :
  • 182100Z AUTO 33009KT CAVOK 15/11 Q1017 NOSIG

METARs EXPIRÉS :
  • 182030Z AUTO 33007KT CAVOK 15/11 Q1016 NOSIG
  • 182000Z AUTO 31005KT CAVOK 15/14 Q1016 NOSIG
  • 181930Z AUTO 30006KT CAVOK 15/14 Q1016 NOSIG
  • 181900Z AUTO 28004KT CAVOK 15/14 Q1016 TEMPO SHRA SCT030TCU BECMG 35010KT
  • 181830Z AUTO 20003KT 9999 FEW039 BKN110 BKN150 15/13 Q1014 TEMPO SHRA SCT030TCU BECMG 35010KT

TAF TAF LFMI
Valide du 18 à 21h jusqu'au 19 à 21h UTC


182000Z 1821/1921 VRB05KT 9999 SCT040 TX23/1914Z TN10/1905Z
BECMG 1821/1823 32012KT CAVOK
BECMG 1906/1909 33015G25KT
PROB40
TEMPO 1915/1920 33020G35KT



MET'MAP, la Météo Aéronautique d'un coup d'oeil ! - Copyright ORBIFLY Décembre 2007 - Disclaimer

ORBIFLY MET'MAP TEAM :

Programmation & Développement : Alexandra Zaïnal
Sur une idée originale de : Baudouin d'Aumeries
Assistance à la programmation : Marc-Olivier Méhu
Soutien technique & logistique : Manuel Goepfert

Contact : metmap@orbifly.com




SOURCES & CREDITS :

   NOAA